Time;durP1;ratioP1;P1;durP2;ratioP2;P2;SDS_P1;SDS_P2;PMS_P1;PMS_P2;Temp;Humidity;BMP_temperature;BMP_pressure;BME280_temperature;BME280_humidity;BME280_pressure;Samples;Min_cycle;Max_cycle;Signal;HPM_P1;HPM_P2
2022/03/13 00:00:52;;;;;;;;;;;17.50;29.30;;;;;;8334941;28;19932;-53
2022/03/13 00:04:56;;;;;;;;;;;17.50;29.40;;;;;;8334329;28;19917;-49
2022/03/13 00:08:57;;;;;;;;;;;17.50;29.40;;;;;;8361098;28;20007;-52
2022/03/13 00:12:58;;;;;;;;;;;17.40;29.40;;;;;;8367576;28;20361;-48
2022/03/13 00:16:59;;;;;;;;;;;17.40;29.40;;;;;;8366777;28;20066;-52
2022/03/13 00:21:02;;;;;;;;;;;17.40;29.40;;;;;;8366845;28;20019;-50
2022/03/13 00:25:08;;;;;;;;;;;17.40;29.40;;;;;;8367200;28;20055;-47
2022/03/13 00:29:09;;;;;;;;;;;17.40;29.40;;;;;;8366630;28;19916;-51
2022/03/13 00:33:10;;;;;;;;;;;17.40;29.40;;;;;;8366779;28;19916;-53
2022/03/13 00:37:11;;;;;;;;;;;17.40;29.30;;;;;;8366458;28;19919;-49
2022/03/13 00:41:12;;;;;;;;;;;17.40;29.30;;;;;;8366001;28;20345;-52
2022/03/13 00:45:13;;;;;;;;;;;17.40;29.30;;;;;;8366921;28;19991;-48
2022/03/13 00:49:13;;;;;;;;;;;17.30;29.30;;;;;;8366416;28;19983;-47
2022/03/13 00:53:14;;;;;;;;;;;17.30;29.30;;;;;;8365856;28;20341;-47
2022/03/13 00:57:15;;;;;;;;;;;17.40;29.40;;;;;;8365896;28;19927;-46
2022/03/13 01:01:16;;;;;;;;;;;17.30;29.40;;;;;;8365927;28;19925;-48
2022/03/13 01:05:21;;;;;;;;;;;17.30;29.40;;;;;;8365507;28;19920;-52
2022/03/13 01:09:22;;;;;;;;;;;17.30;29.40;;;;;;8365582;28;20010;-51
2022/03/13 01:13:22;;;;;;;;;;;17.30;29.40;;;;;;8365696;28;19924;-49
2022/03/13 01:17:24;;;;;;;;;;;17.30;29.40;;;;;;8364186;28;19917;-51
2022/03/13 01:21:26;;;;;;;;;;;17.30;29.40;;;;;;8364416;28;19921;-54
2022/03/13 01:25:26;;;;;;;;;;;17.30;29.40;;;;;;8365579;28;19920;-53
2022/03/13 01:29:27;;;;;;;;;;;17.30;29.30;;;;;;8364455;28;20003;-50
2022/03/13 01:33:27;;;;;;;;;;;17.30;29.40;;;;;;8349852;28;20008;-48
2022/03/13 01:37:30;;;;;;;;;;;17.30;29.40;;;;;;8331929;28;19917;-48
2022/03/13 01:41:34;;;;;;;;;;;17.30;29.40;;;;;;8331371;28;19970;-52
2022/03/13 01:45:34;;;;;;;;;;;17.20;29.40;;;;;;8331749;28;19924;-49
2022/03/13 01:49:35;;;;;;;;;;;17.20;29.40;;;;;;8331249;28;19917;-48
2022/03/13 01:53:35;;;;;;;;;;;17.20;29.40;;;;;;8330831;28;19922;-47
2022/03/13 01:57:40;;;;;;;;;;;17.20;29.40;;;;;;8331420;28;19921;-48
2022/03/13 02:01:41;;;;;;;;;;;17.20;29.40;;;;;;8331083;28;19921;-53
2022/03/13 02:05:42;;;;;;;;;;;17.10;29.30;;;;;;8330817;28;19917;-48
2022/03/13 02:09:46;;;;;;;;;;;17.20;29.40;;;;;;8354619;28;20265;-48
2022/03/13 02:13:50;;;;;;;;;;;17.20;29.40;;;;;;8363345;28;19916;-49
2022/03/13 02:17:50;;;;;;;;;;;17.20;29.40;;;;;;8364001;28;19963;-49
2022/03/13 02:21:52;;;;;;;;;;;17.20;29.40;;;;;;8363588;28;19921;-50
2022/03/13 02:25:56;;;;;;;;;;;17.10;29.30;;;;;;8363257;28;19971;-51
2022/03/13 02:29:57;;;;;;;;;;;17.10;29.30;;;;;;8362500;28;19917;-48
2022/03/13 02:33:58;;;;;;;;;;;17.10;29.30;;;;;;8363273;28;20326;-48
2022/03/13 02:37:58;;;;;;;;;;;17.10;29.30;;;;;;8362898;28;19999;-50
2022/03/13 02:41:59;;;;;;;;;;;17.10;29.40;;;;;;8363323;28;19925;-49
2022/03/13 02:45:59;;;;;;;;;;;17.10;29.50;;;;;;8363533;28;19924;-48
2022/03/13 02:50:00;;;;;;;;;;;17.10;29.30;;;;;;8362683;28;19920;-48
2022/03/13 02:54:00;;;;;;;;;;;17.10;29.40;;;;;;8363490;28;19921;-47
2022/03/13 02:58:01;;;;;;;;;;;17.10;29.40;;;;;;8362780;28;19921;-48
2022/03/13 03:02:02;;;;;;;;;;;17.10;29.40;;;;;;8362268;28;19975;-51
2022/03/13 03:06:03;;;;;;;;;;;17.10;29.40;;;;;;8363379;28;20284;-48
2022/03/13 03:10:05;;;;;;;;;;;17.10;29.40;;;;;;8363040;28;19921;-48
2022/03/13 03:14:05;;;;;;;;;;;17.00;29.30;;;;;;8362099;28;19921;-49
2022/03/13 03:18:09;;;;;;;;;;;17.00;29.30;;;;;;8362691;28;20331;-48
2022/03/13 03:22:10;;;;;;;;;;;17.00;29.40;;;;;;8362440;28;19928;-48
2022/03/13 03:26:10;;;;;;;;;;;17.00;29.30;;;;;;8362345;28;20262;-51
2022/03/13 03:30:11;;;;;;;;;;;17.00;29.40;;;;;;8362396;28;19923;-46
2022/03/13 03:34:12;;;;;;;;;;;17.00;29.40;;;;;;8362393;28;19943;-48
2022/03/13 03:38:14;;;;;;;;;;;17.00;29.30;;;;;;8361816;28;19924;-48
2022/03/13 03:42:14;;;;;;;;;;;17.00;29.40;;;;;;8365724;28;19967;-48
2022/03/13 03:46:16;;;;;;;;;;;17.00;29.40;;;;;;8368567;28;20361;-49
2022/03/13 03:50:17;;;;;;;;;;;17.00;29.40;;;;;;8367789;28;19962;-49
2022/03/13 03:54:18;;;;;;;;;;;17.00;29.40;;;;;;8368202;28;19916;-47
2022/03/13 03:58:21;;;;;;;;;;;16.90;29.30;;;;;;8367778;28;19917;-49
2022/03/13 04:02:21;;;;;;;;;;;16.90;29.30;;;;;;8367591;28;19916;-49
2022/03/13 04:06:22;;;;;;;;;;;16.90;29.30;;;;;;8368326;28;20288;-49
2022/03/13 04:10:22;;;;;;;;;;;16.90;29.30;;;;;;8367678;28;19939;-50
2022/03/13 04:14:23;;;;;;;;;;;16.90;29.40;;;;;;8366834;28;19916;-50
2022/03/13 04:18:23;;;;;;;;;;;16.90;29.40;;;;;;8367455;28;20004;-48
2022/03/13 04:22:24;;;;;;;;;;;16.90;29.40;;;;;;8367417;28;19928;-50
2022/03/13 04:26:24;;;;;;;;;;;16.90;29.40;;;;;;8366624;28;19928;-50
2022/03/13 04:30:29;;;;;;;;;;;16.80;29.40;;;;;;8367303;28;20227;-48
2022/03/13 04:34:30;;;;;;;;;;;16.90;29.40;;;;;;8366742;28;19963;-49
2022/03/13 04:38:30;;;;;;;;;;;16.80;29.40;;;;;;8365977;28;19917;-49
2022/03/13 04:42:31;;;;;;;;;;;16.90;29.40;;;;;;8366912;28;20487;-49
2022/03/13 04:46:32;;;;;;;;;;;16.80;29.40;;;;;;8366615;28;20326;-49
2022/03/13 04:50:32;;;;;;;;;;;16.80;29.40;;;;;;8365691;28;19917;-48
2022/03/13 04:54:32;;;;;;;;;;;16.80;29.40;;;;;;8365438;28;19928;-51
2022/03/13 04:58:33;;;;;;;;;;;16.80;29.40;;;;;;8366136;28;19923;-52
2022/03/13 05:02:34;;;;;;;;;;;16.80;29.40;;;;;;8359592;28;19940;-47
2022/03/13 05:06:36;;;;;;;;;;;16.80;29.40;;;;;;8332971;28;20292;-47
2022/03/13 05:10:37;;;;;;;;;;;16.80;29.40;;;;;;8332843;28;19917;-48
2022/03/13 05:14:38;;;;;;;;;;;16.80;29.40;;;;;;8332037;28;19924;-52
2022/03/13 05:18:38;;;;;;;;;;;16.80;29.40;;;;;;8374649;28;19921;-52
2022/03/13 05:22:39;;;;;;;;;;;16.80;29.50;;;;;;8332672;28;19913;-48
2022/03/13 05:26:39;;;;;;;;;;;16.80;29.40;;;;;;8331668;28;20392;-48
2022/03/13 05:30:40;;;;;;;;;;;16.80;29.50;;;;;;8332204;28;19924;-47
2022/03/13 05:34:40;;;;;;;;;;;16.70;29.40;;;;;;8332156;28;19960;-50
2022/03/13 05:38:40;;;;;;;;;;;16.70;29.40;;;;;;8331451;28;20385;-49
2022/03/13 05:42:44;;;;;;;;;;;16.80;29.40;;;;;;8331895;28;19920;-49
2022/03/13 05:46:44;;;;;;;;;;;16.70;29.40;;;;;;8331163;28;19927;-48
2022/03/13 05:50:45;;;;;;;;;;;16.70;29.50;;;;;;8331672;28;20388;-48
2022/03/13 05:54:46;;;;;;;;;;;16.70;29.40;;;;;;8331638;28;19928;-48
2022/03/13 05:58:46;;;;;;;;;;;16.80;29.40;;;;;;8330796;28;19928;-49
2022/03/13 06:02:47;;;;;;;;;;;16.80;29.40;;;;;;8331349;28;19945;-47
2022/03/13 06:06:47;;;;;;;;;;;16.80;29.50;;;;;;8331070;28;20365;-49
2022/03/13 06:10:48;;;;;;;;;;;16.70;29.40;;;;;;8330385;28;19971;-47
2022/03/13 06:14:48;;;;;;;;;;;16.70;29.40;;;;;;8330724;28;20374;-47
2022/03/13 06:18:49;;;;;;;;;;;16.70;29.40;;;;;;8330603;28;19944;-49
2022/03/13 06:22:49;;;;;;;;;;;16.70;29.40;;;;;;8330325;28;20426;-48
2022/03/13 06:26:50;;;;;;;;;;;16.70;29.40;;;;;;8330392;28;19924;-48
2022/03/13 06:30:50;;;;;;;;;;;16.70;29.40;;;;;;8330627;28;19924;-51
2022/03/13 06:34:51;;;;;;;;;;;16.80;29.30;;;;;;8329896;28;19917;-48
2022/03/13 06:38:52;;;;;;;;;;;16.90;29.30;;;;;;8330307;28;20304;-48
2022/03/13 06:42:54;;;;;;;;;;;16.90;29.20;;;;;;8330403;28;19920;-50
2022/03/13 06:46:54;;;;;;;;;;;17.00;29.10;;;;;;8329853;28;20293;-48
2022/03/13 06:50:56;;;;;;;;;;;17.00;29.00;;;;;;8330204;28;19957;-52
2022/03/13 06:54:57;;;;;;;;;;;17.00;29.00;;;;;;8330353;28;20012;-48
2022/03/13 06:59:03;;;;;;;;;;;16.90;29.00;;;;;;8329378;28;20395;-48
2022/03/13 07:03:03;;;;;;;;;;;16.90;29.10;;;;;;8330167;28;19918;-48
2022/03/13 07:07:04;;;;;;;;;;;16.90;29.10;;;;;;8330103;28;20313;-47
2022/03/13 07:11:04;;;;;;;;;;;16.90;29.20;;;;;;8329518;28;19918;-50
2022/03/13 07:15:08;;;;;;;;;;;16.80;29.20;;;;;;8330050;28;19925;-48
2022/03/13 07:19:09;;;;;;;;;;;16.80;29.20;;;;;;8336189;28;20035;-51
2022/03/13 07:23:09;;;;;;;;;;;16.80;29.20;;;;;;8336260;28;20385;-50
2022/03/13 07:27:10;;;;;;;;;;;16.80;29.30;;;;;;8336197;28;19964;-47
2022/03/13 07:31:10;;;;;;;;;;;16.80;29.30;;;;;;8335989;28;19924;-50
2022/03/13 07:35:11;;;;;;;;;;;16.80;29.30;;;;;;8335140;28;19924;-53
2022/03/13 07:39:14;;;;;;;;;;;16.90;29.30;;;;;;8335681;28;19985;-49
2022/03/13 07:43:14;;;;;;;;;;;16.90;29.20;;;;;;8335824;28;19917;-52
2022/03/13 07:47:15;;;;;;;;;;;16.90;29.20;;;;;;8334584;28;19917;-51
2022/03/13 07:51:17;;;;;;;;;;;16.90;29.20;;;;;;8335238;28;20023;-50
2022/03/13 07:55:18;;;;;;;;;;;16.90;29.20;;;;;;8335644;28;20357;-48
2022/03/13 07:59:18;;;;;;;;;;;16.90;29.30;;;;;;8334243;28;19932;-48
2022/03/13 08:03:19;;;;;;;;;;;16.90;29.30;;;;;;8335167;28;19913;-49
2022/03/13 08:07:20;;;;;;;;;;;16.80;29.30;;;;;;8334418;28;19925;-52
2022/03/13 08:11:20;;;;;;;;;;;16.90;29.30;;;;;;8334355;28;20070;-48
2022/03/13 08:15:21;;;;;;;;;;;16.90;29.30;;;;;;8334556;28;19921;-47
2022/03/13 08:19:21;;;;;;;;;;;16.90;29.30;;;;;;8334527;28;19933;-49
2022/03/13 08:23:22;;;;;;;;;;;16.90;29.30;;;;;;8334297;28;19988;-49
2022/03/13 08:27:23;;;;;;;;;;;16.90;29.40;;;;;;8316598;28;19949;-49
2022/03/13 08:31:23;;;;;;;;;;;16.90;29.30;;;;;;8333988;28;19917;-48
2022/03/13 08:35:24;;;;;;;;;;;16.90;29.40;;;;;;8333449;28;19940;-50
2022/03/13 08:39:25;;;;;;;;;;;16.90;29.40;;;;;;8333826;28;19921;-50
2022/03/13 08:43:25;;;;;;;;;;;16.90;29.40;;;;;;8333775;28;20373;-51
2022/03/13 08:47:27;;;;;;;;;;;16.90;29.40;;;;;;8332920;28;19917;-49
2022/03/13 08:51:27;;;;;;;;;;;16.90;29.40;;;;;;8333252;28;19925;-47
2022/03/13 08:55:28;;;;;;;;;;;16.90;29.40;;;;;;8333496;28;19983;-48
2022/03/13 08:59:35;;;;;;;;;;;16.90;29.50;;;;;;8332528;28;19925;-51
2022/03/13 09:03:36;;;;;;;;;;;16.90;29.50;;;;;;8339092;28;19924;-48
2022/03/13 09:07:36;;;;;;;;;;;16.90;29.40;;;;;;8359934;28;19952;-48
2022/03/13 09:11:37;;;;;;;;;;;16.90;29.50;;;;;;8365230;28;19928;-49
2022/03/13 09:15:39;;;;;;;;;;;16.90;29.40;;;;;;8347587;28;19917;-47
2022/03/13 09:19:40;;;;;;;;;;;17.00;29.50;;;;;;8365494;28;19952;-49
2022/03/13 09:23:40;;;;;;;;;;;17.00;29.50;;;;;;8365093;28;20284;-47
2022/03/13 09:27:41;;;;;;;;;;;17.00;29.50;;;;;;8365300;28;19916;-49
2022/03/13 09:31:41;;;;;;;;;;;17.00;29.50;;;;;;8365257;28;19936;-51
2022/03/13 09:35:42;;;;;;;;;;;17.00;29.40;;;;;;8364369;28;19917;-49
2022/03/13 09:39:43;;;;;;;;;;;17.00;29.50;;;;;;8364210;28;20357;-47
2022/03/13 09:43:44;;;;;;;;;;;17.00;29.50;;;;;;8364654;28;19966;-49
2022/03/13 09:47:44;;;;;;;;;;;17.00;29.40;;;;;;8364585;28;19956;-48
2022/03/13 09:51:44;;;;;;;;;;;17.10;29.50;;;;;;8364677;28;20270;-48
2022/03/13 09:55:45;;;;;;;;;;;17.10;29.50;;;;;;8364210;28;19921;-49
2022/03/13 09:59:46;;;;;;;;;;;17.10;29.50;;;;;;8364036;28;19921;-47
2022/03/13 10:03:46;;;;;;;;;;;17.10;29.50;;;;;;8364282;28;19920;-47
2022/03/13 10:07:51;;;;;;;;;;;17.10;29.50;;;;;;8363508;28;19971;-50
2022/03/13 10:12:02;;;;;;;;;;;17.20;29.50;;;;;;8363755;28;19924;-48
2022/03/13 10:16:04;;;;;;;;;;;17.20;29.40;;;;;;8363803;28;19991;-50
2022/03/13 10:20:19;;;;;;;;;;;17.20;29.40;;;;;;8363168;28;19928;-50
2022/03/13 10:24:19;;;;;;;;;;;17.20;29.30;;;;;;8363985;28;19912;-47
2022/03/13 10:28:31;;;;;;;;;;;17.20;29.40;;;;;;8364063;28;19924;-48
2022/03/13 10:32:31;;;;;;;;;;;17.30;29.40;;;;;;8363134;28;19917;-50
2022/03/13 10:36:34;;;;;;;;;;;17.30;29.80;;;;;;8363419;28;20435;-48
2022/03/13 10:40:36;;;;;;;;;;;17.30;29.40;;;;;;8363043;28;19929;-47
2022/03/13 10:44:52;;;;;;;;;;;17.30;29.30;;;;;;8362816;28;20387;-47
2022/03/13 10:48:54;;;;;;;;;;;17.30;29.30;;;;;;8368187;28;20385;-48
2022/03/13 10:53:08;;;;;;;;;;;17.30;29.30;;;;;;8367538;28;19924;-49
2022/03/13 10:57:12;;;;;;;;;;;17.40;29.30;;;;;;8370036;28;19928;-51
2022/03/13 11:01:13;;;;;;;;;;;17.40;29.30;;;;;;8369573;28;19963;-46
2022/03/13 11:05:14;;;;;;;;;;;17.40;29.30;;;;;;8368978;28;19916;-47
2022/03/13 11:09:14;;;;;;;;;;;17.40;29.30;;;;;;8368670;28;19991;-50
2022/03/13 11:13:15;;;;;;;;;;;17.40;29.30;;;;;;8369341;28;19927;-47
2022/03/13 11:17:18;;;;;;;;;;;17.50;29.20;;;;;;8368793;28;19917;-47
2022/03/13 11:21:22;;;;;;;;;;;17.40;29.30;;;;;;8369275;28;19974;-47
2022/03/13 11:25:23;;;;;;;;;;;17.50;29.30;;;;;;8369100;28;20380;-53
2022/03/13 11:29:40;;;;;;;;;;;17.50;29.20;;;;;;8368801;28;19928;-53
2022/03/13 11:33:44;;;;;;;;;;;17.50;29.30;;;;;;8369087;28;20293;-51
2022/03/13 11:37:59;;;;;;;;;;;17.50;29.20;;;;;;8368283;28;19953;-47
2022/03/13 11:42:01;;;;;;;;;;;17.50;29.20;;;;;;8368439;28;20028;-48
2022/03/13 11:46:01;;;;;;;;;;;17.50;29.20;;;;;;8368503;28;19913;-47
2022/03/13 11:50:02;;;;;;;;;;;17.60;29.20;;;;;;8368099;28;19934;-48
2022/03/13 11:54:03;;;;;;;;;;;17.60;29.30;;;;;;8368149;28;20380;-50
2022/03/13 11:58:03;;;;;;;;;;;17.60;29.30;;;;;;8368127;28;19917;-48
2022/03/13 12:02:09;;;;;;;;;;;17.60;29.30;;;;;;8366860;28;19948;-48
2022/03/13 12:06:09;;;;;;;;;;;17.60;29.30;;;;;;8368010;28;19917;-47
2022/03/13 12:10:32;;;;;;;;;;;17.60;29.20;;;;;;8367729;28;19920;-49
2022/03/13 12:14:53;;;;;;;;;;;17.70;29.20;;;;;;8367049;28;20442;-48
2022/03/13 12:18:58;;;;;;;;;;;17.70;29.30;;;;;;8367139;28;19928;-50
2022/03/13 12:22:59;;;;;;;;;;;17.70;29.40;;;;;;8366772;28;19917;-48
2022/03/13 12:27:03;;;;;;;;;;;17.70;29.20;;;;;;8367117;28;19921;-48
2022/03/13 12:31:03;;;;;;;;;;;17.80;29.30;;;;;;8366922;28;20296;-49
2022/03/13 12:35:04;;;;;;;;;;;17.80;29.30;;;;;;8366630;28;19978;-48
2022/03/13 12:39:14;;;;;;;;;;;17.80;29.30;;;;;;8366840;28;20503;-49
2022/03/13 12:43:14;;;;;;;;;;;17.80;29.20;;;;;;8367715;28;20333;-49
2022/03/13 12:47:25;;;;;;;;;;;17.80;29.30;;;;;;8366024;28;19917;-49
2022/03/13 12:51:45;;;;;;;;;;;17.90;29.30;;;;;;8366384;28;19924;-47
2022/03/13 12:55:52;;;;;;;;;;;17.90;29.20;;;;;;8365984;28;19970;-52
2022/03/13 12:59:53;;;;;;;;;;;17.90;29.20;;;;;;8366150;28;19986;-47
2022/03/13 13:03:54;;;;;;;;;;;17.90;29.20;;;;;;8348192;28;19917;-47
2022/03/13 13:07:55;;;;;;;;;;;17.90;29.20;;;;;;8365405;28;20031;-48
2022/03/13 13:11:56;;;;;;;;;;;17.90;29.20;;;;;;8365912;28;20027;-47
2022/03/13 13:15:57;;;;;;;;;;;17.90;29.20;;;;;;8365095;28;19967;-48
2022/03/13 13:19:59;;;;;;;;;;;17.90;29.20;;;;;;8364823;28;19971;-48
2022/03/13 13:24:00;;;;;;;;;;;18.00;29.30;;;;;;8365669;28;19917;-49
2022/03/13 13:28:02;;;;;;;;;;;18.00;29.30;;;;;;8365060;28;19948;-48
2022/03/13 13:32:19;;;;;;;;;;;18.00;29.30;;;;;;8364520;28;20373;-50
2022/03/13 13:36:19;;;;;;;;;;;18.00;29.30;;;;;;8364983;28;20369;-51
2022/03/13 13:40:20;;;;;;;;;;;18.00;29.30;;;;;;8365184;28;19929;-48
2022/03/13 13:44:30;;;;;;;;;;;18.00;29.20;;;;;;8364160;28;20107;-49
2022/03/13 13:48:31;;;;;;;;;;;18.00;29.30;;;;;;8364584;28;20369;-48
2022/03/13 13:52:33;;;;;;;;;;;18.00;29.30;;;;;;8364359;28;19913;-48
2022/03/13 13:56:49;;;;;;;;;;;18.00;29.30;;;;;;8385708;28;19921;-49
2022/03/13 14:00:50;;;;;;;;;;;18.00;29.30;;;;;;8331463;28;19987;-47
2022/03/13 14:04:53;;;;;;;;;;;18.00;29.30;;;;;;8329954;28;21300;-48
2022/03/13 14:08:54;;;;;;;;;;;18.00;29.30;;;;;;8330940;28;19917;-48
2022/03/13 14:12:55;;;;;;;;;;;18.00;29.40;;;;;;8369013;28;20003;-47
2022/03/13 14:16:55;;;;;;;;;;;18.10;29.40;;;;;;8344028;28;19928;-49
2022/03/13 14:20:56;;;;;;;;;;;18.00;29.30;;;;;;8364098;28;19920;-49
2022/03/13 14:24:56;;;;;;;;;;;18.10;29.40;;;;;;8363440;28;19916;-46
2022/03/13 14:28:57;;;;;;;;;;;18.10;29.30;;;;;;8363057;28;20376;-51
2022/03/13 14:32:58;;;;;;;;;;;18.10;29.40;;;;;;8363612;28;19917;-48
2022/03/13 14:36:59;;;;;;;;;;;18.10;29.30;;;;;;8363230;28;19919;-51
2022/03/13 14:40:59;;;;;;;;;;;18.10;29.20;;;;;;8362964;28;20289;-51
2022/03/13 14:45:00;;;;;;;;;;;18.10;29.20;;;;;;8363190;28;20003;-49
2022/03/13 14:49:00;;;;;;;;;;;18.10;29.20;;;;;;8363470;28;20300;-48
2022/03/13 14:53:01;;;;;;;;;;;18.10;29.20;;;;;;8362604;28;19917;-49
2022/03/13 14:57:02;;;;;;;;;;;18.10;29.20;;;;;;8363396;28;19921;-48
2022/03/13 15:01:06;;;;;;;;;;;18.10;29.20;;;;;;8362928;28;19921;-47
2022/03/13 15:05:06;;;;;;;;;;;18.10;29.20;;;;;;8362313;28;19916;-48
2022/03/13 15:09:07;;;;;;;;;;;18.10;29.20;;;;;;8362820;28;19999;-47
2022/03/13 15:13:08;;;;;;;;;;;18.10;29.10;;;;;;8362863;28;19924;-47
2022/03/13 15:17:09;;;;;;;;;;;18.10;29.20;;;;;;8362116;28;19925;-49
2022/03/13 15:21:09;;;;;;;;;;;18.10;29.20;;;;;;8362770;28;19921;-49
2022/03/13 15:25:10;;;;;;;;;;;18.10;29.20;;;;;;8362672;28;19924;-46
2022/03/13 15:29:10;;;;;;;;;;;18.10;29.20;;;;;;8361931;28;19920;-46
2022/03/13 15:33:12;;;;;;;;;;;18.10;29.20;;;;;;8362607;28;19917;-46
2022/03/13 15:37:13;;;;;;;;;;;18.10;29.20;;;;;;8364403;28;19913;-47
2022/03/13 15:41:14;;;;;;;;;;;18.10;29.20;;;;;;8368225;28;19962;-47
2022/03/13 15:45:15;;;;;;;;;;;18.10;29.10;;;;;;8368413;28;19917;-46
2022/03/13 15:49:15;;;;;;;;;;;18.10;29.10;;;;;;8368495;28;19921;-48
2022/03/13 15:53:16;;;;;;;;;;;18.10;29.10;;;;;;8367918;28;20395;-47
2022/03/13 15:57:17;;;;;;;;;;;18.10;29.10;;;;;;8367911;28;19931;-47
2022/03/13 16:01:17;;;;;;;;;;;18.20;29.10;;;;;;8368272;28;19925;-46
2022/03/13 16:05:19;;;;;;;;;;;18.20;29.10;;;;;;8367304;28;19916;-47
2022/03/13 16:09:20;;;;;;;;;;;18.20;29.10;;;;;;8367900;28;19971;-46
2022/03/13 16:13:20;;;;;;;;;;;18.20;29.10;;;;;;8367506;28;19967;-48
2022/03/13 16:17:25;;;;;;;;;;;18.20;29.10;;;;;;8366998;28;20296;-47
2022/03/13 16:21:25;;;;;;;;;;;18.20;29.10;;;;;;8367403;28;19929;-46
2022/03/13 16:25:26;;;;;;;;;;;18.20;29.00;;;;;;8367173;28;20329;-46
2022/03/13 16:29:26;;;;;;;;;;;18.20;29.10;;;;;;8366495;28;19999;-46
2022/03/13 16:33:27;;;;;;;;;;;18.20;29.00;;;;;;8367190;28;19913;-48
2022/03/13 16:37:27;;;;;;;;;;;18.20;29.00;;;;;;8366894;28;19943;-47
2022/03/13 16:41:27;;;;;;;;;;;18.20;29.00;;;;;;8366304;28;20320;-48
2022/03/13 16:45:30;;;;;;;;;;;18.30;29.00;;;;;;8366608;28;19917;-47
2022/03/13 16:49:30;;;;;;;;;;;18.20;29.00;;;;;;8365131;28;19916;-48
2022/03/13 16:53:31;;;;;;;;;;;18.20;29.00;;;;;;8365717;28;19924;-48
2022/03/13 16:57:32;;;;;;;;;;;18.20;29.00;;;;;;8366438;28;20232;-48
2022/03/13 17:01:32;;;;;;;;;;;18.20;29.00;;;;;;8366199;28;19978;-47
2022/03/13 17:05:34;;;;;;;;;;;18.20;29.40;;;;;;8365235;28;20383;-50
2022/03/13 17:09:34;;;;;;;;;;;18.20;29.10;;;;;;8364364;28;19920;-47
2022/03/13 17:13:35;;;;;;;;;;;18.20;29.00;;;;;;8365764;28;20357;-47
2022/03/13 17:17:35;;;;;;;;;;;18.20;29.10;;;;;;8365195;28;19921;-46
2022/03/13 17:21:38;;;;;;;;;;;18.20;29.10;;;;;;8365391;28;19963;-49
2022/03/13 17:25:39;;;;;;;;;;;18.20;29.00;;;;;;8365292;28;20000;-46
2022/03/13 17:29:40;;;;;;;;;;;18.20;29.10;;;;;;8364483;28;19923;-49
2022/03/13 17:33:40;;;;;;;;;;;18.20;29.00;;;;;;8364964;28;19963;-47
2022/03/13 17:37:41;;;;;;;;;;;18.20;29.10;;;;;;8364980;28;19986;-47
2022/03/13 17:41:42;;;;;;;;;;;18.20;29.10;;;;;;8364078;28;19979;-51
2022/03/13 17:45:43;;;;;;;;;;;18.10;29.00;;;;;;8364913;28;20416;-48
2022/03/13 17:49:43;;;;;;;;;;;18.10;29.00;;;;;;8364007;28;19917;-48
2022/03/13 17:53:44;;;;;;;;;;;18.20;29.10;;;;;;8364393;28;20291;-47
2022/03/13 17:57:44;;;;;;;;;;;18.10;29.10;;;;;;8364597;28;20335;-49
2022/03/13 18:01:46;;;;;;;;;;;18.10;29.10;;;;;;8363226;28;20308;-50
2022/03/13 18:05:46;;;;;;;;;;;18.10;29.10;;;;;;8363979;28;19916;-47
2022/03/13 18:09:47;;;;;;;;;;;18.10;29.00;;;;;;8363975;28;20277;-47
2022/03/13 18:13:48;;;;;;;;;;;18.10;29.10;;;;;;8363377;28;20046;-50
2022/03/13 18:17:48;;;;;;;;;;;18.10;29.10;;;;;;8364021;28;19913;-48
2022/03/13 18:21:49;;;;;;;;;;;18.10;29.00;;;;;;8363652;28;19925;-48
2022/03/13 18:25:49;;;;;;;;;;;18.10;29.10;;;;;;8363086;28;19923;-48
2022/03/13 18:29:50;;;;;;;;;;;18.10;29.10;;;;;;8345398;28;20023;-47
2022/03/13 18:33:50;;;;;;;;;;;18.10;29.10;;;;;;8363250;28;19919;-48
2022/03/13 18:37:51;;;;;;;;;;;18.10;29.10;;;;;;8363018;28;20274;-47
2022/03/13 18:41:51;;;;;;;;;;;18.10;29.10;;;;;;8363059;28;19947;-52
2022/03/13 18:45:53;;;;;;;;;;;18.20;29.20;;;;;;8363272;28;19924;-48
2022/03/13 18:49:53;;;;;;;;;;;18.10;29.10;;;;;;8362533;28;20436;-48
2022/03/13 18:53:55;;;;;;;;;;;18.10;29.10;;;;;;8363295;28;19913;-49
2022/03/13 18:57:59;;;;;;;;;;;18.10;29.20;;;;;;8363054;28;20353;-51
2022/03/13 19:01:59;;;;;;;;;;;18.10;29.10;;;;;;8362394;28;19925;-52
2022/03/13 19:06:00;;;;;;;;;;;18.10;29.10;;;;;;8362558;28;19921;-52
2022/03/13 19:10:01;;;;;;;;;;;18.10;29.20;;;;;;8362677;28;20274;-50
2022/03/13 19:14:02;;;;;;;;;;;18.10;29.10;;;;;;8367329;28;20003;-49
2022/03/13 19:18:04;;;;;;;;;;;18.10;29.10;;;;;;8369594;28;19913;-49
2022/03/13 19:22:04;;;;;;;;;;;18.10;29.20;;;;;;8369366;28;20452;-47
2022/03/13 19:26:04;;;;;;;;;;;18.10;29.20;;;;;;8368560;28;19996;-46
2022/03/13 19:30:11;;;;;;;;;;;18.10;29.10;;;;;;8369120;28;19956;-49
2022/03/13 19:34:11;;;;;;;;;;;18.10;29.10;;;;;;8368940;28;20265;-47
2022/03/13 19:38:13;;;;;;;;;;;18.10;29.10;;;;;;8368609;28;19920;-50
2022/03/13 19:42:13;;;;;;;;;;;18.10;29.10;;;;;;8368380;28;19964;-48
2022/03/13 19:46:14;;;;;;;;;;;18.10;29.10;;;;;;8368121;28;20304;-46
2022/03/13 19:50:15;;;;;;;;;;;18.10;29.10;;;;;;8367858;28;19921;-48
2022/03/13 19:54:17;;;;;;;;;;;18.10;29.10;;;;;;8367920;28;19927;-49
2022/03/13 19:58:18;;;;;;;;;;;18.10;29.10;;;;;;8368368;28;20328;-48
2022/03/13 20:02:19;;;;;;;;;;;18.10;29.10;;;;;;8367368;28;20066;-49
2022/03/13 20:06:19;;;;;;;;;;;18.10;29.10;;;;;;8368127;28;19917;-48
2022/03/13 20:10:20;;;;;;;;;;;18.10;29.10;;;;;;8366690;28;19917;-48
2022/03/13 20:14:21;;;;;;;;;;;18.10;29.10;;;;;;8367060;28;19924;-46
2022/03/13 20:18:21;;;;;;;;;;;18.10;29.10;;;;;;8367199;28;19927;-47
2022/03/13 20:22:22;;;;;;;;;;;18.10;29.10;;;;;;8366965;28;20011;-48
2022/03/13 20:26:22;;;;;;;;;;;18.10;29.10;;;;;;8366617;28;20289;-48
2022/03/13 20:30:24;;;;;;;;;;;18.10;29.10;;;;;;8367269;28;19916;-49
2022/03/13 20:34:25;;;;;;;;;;;18.10;29.10;;;;;;8366983;28;20011;-49
2022/03/13 20:38:25;;;;;;;;;;;18.10;29.10;;;;;;8366584;28;19920;-46
2022/03/13 20:42:26;;;;;;;;;;;18.10;29.00;;;;;;8366642;28;19928;-47
2022/03/13 20:46:26;;;;;;;;;;;18.10;29.10;;;;;;8366478;28;19923;-47
2022/03/13 20:50:27;;;;;;;;;;;18.10;29.00;;;;;;8365855;28;19960;-47
2022/03/13 20:54:28;;;;;;;;;;;18.10;29.10;;;;;;8366351;28;19956;-48
2022/03/13 20:58:29;;;;;;;;;;;18.10;29.10;;;;;;8366427;28;19913;-47
2022/03/13 21:02:29;;;;;;;;;;;18.10;29.00;;;;;;8365398;28;19932;-49
2022/03/13 21:06:30;;;;;;;;;;;18.10;29.10;;;;;;8365851;28;20270;-48
2022/03/13 21:10:30;;;;;;;;;;;18.10;29.10;;;;;;8365987;28;19917;-47
2022/03/13 21:14:31;;;;;;;;;;;18.10;29.10;;;;;;8365075;28;20389;-50
2022/03/13 21:18:33;;;;;;;;;;;18.10;29.10;;;;;;8365796;28;19955;-46
2022/03/13 21:22:34;;;;;;;;;;;18.10;29.10;;;;;;8365473;28;20012;-47
2022/03/13 21:26:35;;;;;;;;;;;18.10;29.10;;;;;;8364864;28;19920;-47
2022/03/13 21:30:36;;;;;;;;;;;18.10;29.10;;;;;;8365096;28;19920;-47
2022/03/13 21:34:37;;;;;;;;;;;18.10;29.10;;;;;;8364469;28;19940;-47
2022/03/13 21:38:37;;;;;;;;;;;18.10;29.10;;;;;;8364561;28;19917;-47
2022/03/13 21:42:38;;;;;;;;;;;18.10;29.10;;;;;;8364687;28;19924;-48
2022/03/13 21:46:39;;;;;;;;;;;18.10;29.10;;;;;;8364489;28;19942;-46
2022/03/13 21:50:40;;;;;;;;;;;18.10;29.00;;;;;;8363974;28;19923;-48
2022/03/13 21:54:43;;;;;;;;;;;18.10;29.10;;;;;;8364740;28;19970;-47
2022/03/13 21:58:44;;;;;;;;;;;18.10;29.00;;;;;;8364194;28;19950;-49
2022/03/13 22:02:44;;;;;;;;;;;18.00;29.00;;;;;;8364007;28;19925;-46
2022/03/13 22:06:46;;;;;;;;;;;18.10;29.00;;;;;;8364156;28;19917;-47
2022/03/13 22:10:48;;;;;;;;;;;18.10;29.10;;;;;;8363492;28;19978;-48
2022/03/13 22:14:49;;;;;;;;;;;18.10;29.00;;;;;;8364053;28;19916;-48
2022/03/13 22:18:50;;;;;;;;;;;18.10;29.10;;;;;;8364311;28;19960;-50
2022/03/13 22:22:51;;;;;;;;;;;18.00;29.00;;;;;;8363105;28;19925;-47
2022/03/13 22:26:52;;;;;;;;;;;18.00;29.00;;;;;;8345922;28;19986;-50
2022/03/13 22:30:52;;;;;;;;;;;18.00;29.00;;;;;;8363282;28;19917;-47
2022/03/13 22:34:53;;;;;;;;;;;18.00;29.00;;;;;;8362395;28;19917;-49
2022/03/13 22:38:53;;;;;;;;;;;18.00;29.10;;;;;;8363905;28;20335;-48
2022/03/13 22:42:54;;;;;;;;;;;18.00;29.10;;;;;;8363282;28;19971;-52
2022/03/13 22:46:54;;;;;;;;;;;18.00;29.20;;;;;;8362597;28;20392;-52
2022/03/13 22:51:01;;;;;;;;;;;18.00;29.20;;;;;;8363086;28;19952;-48
2022/03/13 22:55:01;;;;;;;;;;;18.00;29.30;;;;;;8363252;28;19975;-47
2022/03/13 22:59:02;;;;;;;;;;;18.00;29.30;;;;;;8363322;28;19917;-50
2022/03/13 23:03:03;;;;;;;;;;;18.00;29.40;;;;;;8362250;28;19974;-49
2022/03/13 23:07:03;;;;;;;;;;;18.00;29.40;;;;;;8361630;28;19921;-48
2022/03/13 23:11:04;;;;;;;;;;;18.00;29.50;;;;;;8362240;28;19916;-48
2022/03/13 23:15:04;;;;;;;;;;;17.90;29.60;;;;;;8362761;28;20374;-47
2022/03/13 23:19:05;;;;;;;;;;;17.90;29.60;;;;;;8363170;28;20200;-47
2022/03/13 23:23:05;;;;;;;;;;;17.90;29.70;;;;;;8362294;28;19925;-46